sensor_id;sensor_type;location;lat;lon;timestamp;temperature;humidity
67586;SHT31;55785;47.946;20.540;2024-02-16T00:00:55;1.29;89.34
67586;SHT31;55785;47.946;20.540;2024-02-16T00:03:20;1.27;89.32
67586;SHT31;55785;47.946;20.540;2024-02-16T00:05:46;1.26;89.27
67586;SHT31;55785;47.946;20.540;2024-02-16T00:08:11;1.30;89.13
67586;SHT31;55785;47.946;20.540;2024-02-16T00:10:37;1.32;89.03
67586;SHT31;55785;47.946;20.540;2024-02-16T00:13:02;1.30;89.02
67586;SHT31;55785;47.946;20.540;2024-02-16T00:15:27;1.26;89.05
67586;SHT31;55785;47.946;20.540;2024-02-16T00:17:53;1.29;88.98
67586;SHT31;55785;47.946;20.540;2024-02-16T00:20:18;1.23;88.95
67586;SHT31;55785;47.946;20.540;2024-02-16T00:22:43;1.20;89.08
67586;SHT31;55785;47.946;20.540;2024-02-16T00:25:09;1.17;89.20
67586;SHT31;55785;47.946;20.540;2024-02-16T00:27:34;1.16;89.18
67586;SHT31;55785;47.946;20.540;2024-02-16T00:29:59;1.19;89.24
67586;SHT31;55785;47.946;20.540;2024-02-16T00:32:25;1.22;89.25
67586;SHT31;55785;47.946;20.540;2024-02-16T00:34:50;1.19;89.24
67586;SHT31;55785;47.946;20.540;2024-02-16T00:37:15;1.19;89.31
67586;SHT31;55785;47.946;20.540;2024-02-16T00:39:41;1.17;89.23
67586;SHT31;55785;47.946;20.540;2024-02-16T00:42:06;1.12;89.30
67586;SHT31;55785;47.946;20.540;2024-02-16T00:44:32;1.12;89.31
67586;SHT31;55785;47.946;20.540;2024-02-16T00:46:57;1.13;89.33
67586;SHT31;55785;47.946;20.540;2024-02-16T00:49:22;1.09;89.33
67586;SHT31;55785;47.946;20.540;2024-02-16T00:51:48;1.06;89.40
67586;SHT31;55785;47.946;20.540;2024-02-16T00:54:13;1.05;89.54
67586;SHT31;55785;47.946;20.540;2024-02-16T00:56:38;1.07;89.55
67586;SHT31;55785;47.946;20.540;2024-02-16T00:59:04;1.07;89.59
67586;SHT31;55785;47.946;20.540;2024-02-16T01:01:29;1.05;89.56
67586;SHT31;55785;47.946;20.540;2024-02-16T01:03:55;1.06;89.56
67586;SHT31;55785;47.946;20.540;2024-02-16T01:06:20;1.03;89.60
67586;SHT31;55785;47.946;20.540;2024-02-16T01:08:46;1.03;89.61
67586;SHT31;55785;47.946;20.540;2024-02-16T01:11:11;0.97;89.51
67586;SHT31;55785;47.946;20.540;2024-02-16T01:13:36;0.96;89.57
67586;SHT31;55785;47.946;20.540;2024-02-16T01:16:03;0.96;89.57
67586;SHT31;55785;47.946;20.540;2024-02-16T01:18:29;0.91;89.68
67586;SHT31;55785;47.946;20.540;2024-02-16T01:20:54;0.97;89.59
67586;SHT31;55785;47.946;20.540;2024-02-16T01:23:20;0.95;89.53
67586;SHT31;55785;47.946;20.540;2024-02-16T01:25:45;0.95;89.48
67586;SHT31;55785;47.946;20.540;2024-02-16T01:28:11;0.91;89.52
67586;SHT31;55785;47.946;20.540;2024-02-16T01:30:36;0.88;89.58
67586;SHT31;55785;47.946;20.540;2024-02-16T01:33:02;0.86;89.74
67586;SHT31;55785;47.946;20.540;2024-02-16T01:35:27;0.86;89.84
67586;SHT31;55785;47.946;20.540;2024-02-16T01:37:52;0.89;89.96
67586;SHT31;55785;47.946;20.540;2024-02-16T01:40:18;0.92;89.90
67586;SHT31;55785;47.946;20.540;2024-02-16T01:42:43;0.93;89.83
67586;SHT31;55785;47.946;20.540;2024-02-16T01:45:10;0.93;89.80
67586;SHT31;55785;47.946;20.540;2024-02-16T01:47:36;0.86;89.83
67586;SHT31;55785;47.946;20.540;2024-02-16T01:50:02;0.89;89.67
67586;SHT31;55785;47.946;20.540;2024-02-16T01:52:29;0.82;89.68
67586;SHT31;55785;47.946;20.540;2024-02-16T01:54:54;0.78;89.81
67586;SHT31;55785;47.946;20.540;2024-02-16T01:57:20;0.74;90.01
67586;SHT31;55785;47.946;20.540;2024-02-16T01:59:45;0.78;90.06
67586;SHT31;55785;47.946;20.540;2024-02-16T02:02:10;0.81;90.03
67586;SHT31;55785;47.946;20.540;2024-02-16T02:04:36;0.81;90.04
67586;SHT31;55785;47.946;20.540;2024-02-16T02:07:13;0.79;89.97
67586;SHT31;55785;47.946;20.540;2024-02-16T02:09:39;0.78;89.84
67586;SHT31;55785;47.946;20.540;2024-02-16T02:12:04;0.85;89.83
67586;SHT31;55785;47.946;20.540;2024-02-16T02:14:30;0.86;89.80
67586;SHT31;55785;47.946;20.540;2024-02-16T02:16:55;0.86;89.86
67586;SHT31;55785;47.946;20.540;2024-02-16T02:19:20;0.86;89.99
67586;SHT31;55785;47.946;20.540;2024-02-16T02:21:46;0.89;90.12
67586;SHT31;55785;47.946;20.540;2024-02-16T02:24:11;0.95;90.06
67586;SHT31;55785;47.946;20.540;2024-02-16T02:26:37;0.92;90.00
67586;SHT31;55785;47.946;20.540;2024-02-16T02:29:03;0.93;90.02
67586;SHT31;55785;47.946;20.540;2024-02-16T02:31:28;0.99;89.85
67586;SHT31;55785;47.946;20.540;2024-02-16T02:33:53;0.99;89.58
67586;SHT31;55785;47.946;20.540;2024-02-16T02:36:19;0.99;89.63
67586;SHT31;55785;47.946;20.540;2024-02-16T02:38:44;0.99;89.68
67586;SHT31;55785;47.946;20.540;2024-02-16T02:41:09;1.02;89.69
67586;SHT31;55785;47.946;20.540;2024-02-16T02:43:35;1.06;89.68
67586;SHT31;55785;47.946;20.540;2024-02-16T02:46:00;1.00;89.68
67586;SHT31;55785;47.946;20.540;2024-02-16T02:48:25;0.99;89.63
67586;SHT31;55785;47.946;20.540;2024-02-16T02:50:51;0.93;89.63
67586;SHT31;55785;47.946;20.540;2024-02-16T02:53:16;0.89;89.66
67586;SHT31;55785;47.946;20.540;2024-02-16T02:55:42;0.91;89.72
67586;SHT31;55785;47.946;20.540;2024-02-16T02:58:07;0.86;89.64
67586;SHT31;55785;47.946;20.540;2024-02-16T03:00:32;0.85;89.71
67586;SHT31;55785;47.946;20.540;2024-02-16T03:02:58;0.82;89.66
67586;SHT31;55785;47.946;20.540;2024-02-16T03:05:23;0.79;89.67
67586;SHT31;55785;47.946;20.540;2024-02-16T03:07:48;0.78;89.65
67586;SHT31;55785;47.946;20.540;2024-02-16T03:10:13;0.75;89.66
67586;SHT31;55785;47.946;20.540;2024-02-16T03:12:39;0.68;89.93
67586;SHT31;55785;47.946;20.540;2024-02-16T03:15:05;0.69;90.07
67586;SHT31;55785;47.946;20.540;2024-02-16T03:17:30;0.69;90.07
67586;SHT31;55785;47.946;20.540;2024-02-16T03:19:55;0.71;90.12
67586;SHT31;55785;47.946;20.540;2024-02-16T03:22:21;0.66;90.09
67586;SHT31;55785;47.946;20.540;2024-02-16T03:24:46;0.71;90.17
67586;SHT31;55785;47.946;20.540;2024-02-16T03:27:11;0.68;90.15
67586;SHT31;55785;47.946;20.540;2024-02-16T03:29:37;0.66;90.17
67586;SHT31;55785;47.946;20.540;2024-02-16T03:32:02;0.65;90.19
67586;SHT31;55785;47.946;20.540;2024-02-16T03:34:28;0.61;90.26
67586;SHT31;55785;47.946;20.540;2024-02-16T03:36:53;0.60;90.24
67586;SHT31;55785;47.946;20.540;2024-02-16T03:39:18;0.60;90.23
67586;SHT31;55785;47.946;20.540;2024-02-16T03:41:44;0.60;90.30
67586;SHT31;55785;47.946;20.540;2024-02-16T03:44:09;0.60;90.30
67586;SHT31;55785;47.946;20.540;2024-02-16T03:46:34;0.61;90.33
67586;SHT31;55785;47.946;20.540;2024-02-16T03:49:00;0.58;90.32
67586;SHT31;55785;47.946;20.540;2024-02-16T03:51:25;0.57;90.41
67586;SHT31;55785;47.946;20.540;2024-02-16T03:53:50;0.55;90.57
67586;SHT31;55785;47.946;20.540;2024-02-16T03:56:19;0.60;90.59
67586;SHT31;55785;47.946;20.540;2024-02-16T03:58:45;0.58;90.51
67586;SHT31;55785;47.946;20.540;2024-02-16T04:01:10;0.60;90.37
67586;SHT31;55785;47.946;20.540;2024-02-16T04:03:35;0.55;90.41
67586;SHT31;55785;47.946;20.540;2024-02-16T04:06:00;0.55;90.54
67586;SHT31;55785;47.946;20.540;2024-02-16T04:08:26;0.62;90.48
67586;SHT31;55785;47.946;20.540;2024-02-16T04:10:51;0.61;90.51
67586;SHT31;55785;47.946;20.540;2024-02-16T04:13:17;0.61;90.54
67586;SHT31;55785;47.946;20.540;2024-02-16T04:15:42;0.60;90.51
67586;SHT31;55785;47.946;20.540;2024-02-16T04:18:07;0.55;90.42
67586;SHT31;55785;47.946;20.540;2024-02-16T04:20:33;0.57;90.44
67586;SHT31;55785;47.946;20.540;2024-02-16T04:22:58;0.54;90.43
67586;SHT31;55785;47.946;20.540;2024-02-16T04:25:23;0.47;90.54
67586;SHT31;55785;47.946;20.540;2024-02-16T04:27:49;0.54;90.59
67586;SHT31;55785;47.946;20.540;2024-02-16T04:30:14;0.48;90.55
67586;SHT31;55785;47.946;20.540;2024-02-16T04:32:39;0.48;90.60
67586;SHT31;55785;47.946;20.540;2024-02-16T04:35:05;0.54;90.58
67586;SHT31;55785;47.946;20.540;2024-02-16T04:37:30;0.47;90.63
67586;SHT31;55785;47.946;20.540;2024-02-16T04:39:55;0.53;90.71
67586;SHT31;55785;47.946;20.540;2024-02-16T04:42:21;0.57;90.69
67586;SHT31;55785;47.946;20.540;2024-02-16T04:44:46;0.55;90.51
67586;SHT31;55785;47.946;20.540;2024-02-16T04:47:12;0.55;90.54
67586;SHT31;55785;47.946;20.540;2024-02-16T04:49:37;0.54;90.60
67586;SHT31;55785;47.946;20.540;2024-02-16T04:52:03;0.54;90.69
67586;SHT31;55785;47.946;20.540;2024-02-16T04:54:29;0.53;90.58
67586;SHT31;55785;47.946;20.540;2024-02-16T04:56:54;0.44;90.50
67586;SHT31;55785;47.946;20.540;2024-02-16T04:59:20;0.38;90.49
67586;SHT31;55785;47.946;20.540;2024-02-16T05:01:46;0.43;90.59
67586;SHT31;55785;47.946;20.540;2024-02-16T05:04:12;0.44;90.82
67586;SHT31;55785;47.946;20.540;2024-02-16T05:06:40;0.43;90.85
67586;SHT31;55785;47.946;20.540;2024-02-16T05:09:05;0.38;90.88
67586;SHT31;55785;47.946;20.540;2024-02-16T05:11:32;0.37;90.75
67586;SHT31;55785;47.946;20.540;2024-02-16T05:13:57;0.31;90.79
67586;SHT31;55785;47.946;20.540;2024-02-16T05:16:22;0.30;90.93
67586;SHT31;55785;47.946;20.540;2024-02-16T05:18:48;0.33;91.01
67586;SHT31;55785;47.946;20.540;2024-02-16T05:21:13;0.30;91.03
67586;SHT31;55785;47.946;20.540;2024-02-16T05:23:38;0.30;91.00
67586;SHT31;55785;47.946;20.540;2024-02-16T05:26:04;0.20;90.85
67586;SHT31;55785;47.946;20.540;2024-02-16T05:28:29;0.18;90.92
67586;SHT31;55785;47.946;20.540;2024-02-16T05:30:55;0.17;91.07
67586;SHT31;55785;47.946;20.540;2024-02-16T05:33:20;0.18;91.21
67586;SHT31;55785;47.946;20.540;2024-02-16T05:35:46;0.20;91.18
67586;SHT31;55785;47.946;20.540;2024-02-16T05:38:11;0.16;91.25
67586;SHT31;55785;47.946;20.540;2024-02-16T05:40:36;0.17;91.22
67586;SHT31;55785;47.946;20.540;2024-02-16T05:43:02;0.14;91.12
67586;SHT31;55785;47.946;20.540;2024-02-16T05:45:27;0.13;91.16
67586;SHT31;55785;47.946;20.540;2024-02-16T05:47:52;0.17;91.28
67586;SHT31;55785;47.946;20.540;2024-02-16T05:50:20;0.13;91.31
67586;SHT31;55785;47.946;20.540;2024-02-16T05:52:45;0.17;91.32
67586;SHT31;55785;47.946;20.540;2024-02-16T05:55:12;0.17;91.32
67586;SHT31;55785;47.946;20.540;2024-02-16T05:57:37;0.20;91.29
67586;SHT31;55785;47.946;20.540;2024-02-16T06:00:07;0.20;91.30
67586;SHT31;55785;47.946;20.540;2024-02-16T06:02:33;0.24;91.29
67586;SHT31;55785;47.946;20.540;2024-02-16T06:05:02;0.21;91.27
67586;SHT31;55785;47.946;20.540;2024-02-16T06:07:28;0.28;91.25
67586;SHT31;55785;47.946;20.540;2024-02-16T06:09:55;0.30;91.11
67586;SHT31;55785;47.946;20.540;2024-02-16T06:12:20;0.27;91.06
67586;SHT31;55785;47.946;20.540;2024-02-16T06:14:46;0.26;91.02
67586;SHT31;55785;47.946;20.540;2024-02-16T06:17:11;0.30;91.19
67586;SHT31;55785;47.946;20.540;2024-02-16T06:19:36;0.31;91.21
67586;SHT31;55785;47.946;20.540;2024-02-16T06:22:02;0.34;91.26
67586;SHT31;55785;47.946;20.540;2024-02-16T06:24:28;0.33;91.32
67586;SHT31;55785;47.946;20.540;2024-02-16T06:26:53;0.37;91.25
67586;SHT31;55785;47.946;20.540;2024-02-16T06:29:18;0.43;91.31
67586;SHT31;55785;47.946;20.540;2024-02-16T06:31:44;0.50;91.32
67586;SHT31;55785;47.946;20.540;2024-02-16T06:34:09;0.55;91.23
67586;SHT31;55785;47.946;20.540;2024-02-16T06:36:34;0.62;91.20
67586;SHT31;55785;47.946;20.540;2024-02-16T06:39:00;0.65;91.11
67586;SHT31;55785;47.946;20.540;2024-02-16T06:41:25;0.68;91.14
67586;SHT31;55785;47.946;20.540;2024-02-16T06:43:50;0.69;91.14
67586;SHT31;55785;47.946;20.540;2024-02-16T06:46:16;0.78;91.16
67586;SHT31;55785;47.946;20.540;2024-02-16T06:48:41;0.82;91.16
67586;SHT31;55785;47.946;20.540;2024-02-16T06:51:06;0.89;91.12
67586;SHT31;55785;47.946;20.540;2024-02-16T06:53:32;0.99;90.98
67586;SHT31;55785;47.946;20.540;2024-02-16T06:55:58;1.00;90.91
67586;SHT31;55785;47.946;20.540;2024-02-16T06:58:23;1.05;90.84
67586;SHT31;55785;47.946;20.540;2024-02-16T07:00:48;1.17;90.79
67586;SHT31;55785;47.946;20.540;2024-02-16T07:03:14;1.29;90.61
67586;SHT31;55785;47.946;20.540;2024-02-16T07:05:39;1.44;90.48
67586;SHT31;55785;47.946;20.540;2024-02-16T07:08:05;1.60;90.29
67586;SHT31;55785;47.946;20.540;2024-02-16T07:10:30;1.77;90.00
67586;SHT31;55785;47.946;20.540;2024-02-16T07:12:55;1.97;89.67
67586;SHT31;55785;47.946;20.540;2024-02-16T07:15:21;2.15;89.44
67586;SHT31;55785;47.946;20.540;2024-02-16T07:17:46;2.29;89.19
67586;SHT31;55785;47.946;20.540;2024-02-16T07:20:11;2.50;88.95
67586;SHT31;55785;47.946;20.540;2024-02-16T07:22:37;2.62;88.64
67586;SHT31;55785;47.946;20.540;2024-02-16T07:25:02;2.84;88.50
67586;SHT31;55785;47.946;20.540;2024-02-16T07:27:27;2.98;88.43
67586;SHT31;55785;47.946;20.540;2024-02-16T07:29:53;3.09;87.87
67586;SHT31;55785;47.946;20.540;2024-02-16T07:32:18;3.18;87.01
67586;SHT31;55785;47.946;20.540;2024-02-16T07:34:47;3.28;86.66
67586;SHT31;55785;47.946;20.540;2024-02-16T07:37:13;3.40;86.47
67586;SHT31;55785;47.946;20.540;2024-02-16T07:39:39;3.50;86.49
67586;SHT31;55785;47.946;20.540;2024-02-16T07:42:04;3.67;86.47
67586;SHT31;55785;47.946;20.540;2024-02-16T07:44:30;3.81;85.80
67586;SHT31;55785;47.946;20.540;2024-02-16T07:46:55;3.84;84.78
67586;SHT31;55785;47.946;20.540;2024-02-16T07:49:20;3.98;85.51
67586;SHT31;55785;47.946;20.540;2024-02-16T07:51:46;4.05;84.98
67586;SHT31;55785;47.946;20.540;2024-02-16T07:54:11;4.12;84.54
67586;SHT31;55785;47.946;20.540;2024-02-16T07:56:36;4.21;84.55
67586;SHT31;55785;47.946;20.540;2024-02-16T07:59:02;4.35;84.98
67586;SHT31;55785;47.946;20.540;2024-02-16T08:01:27;4.41;83.81
67586;SHT31;55785;47.946;20.540;2024-02-16T08:03:52;4.49;83.56
67586;SHT31;55785;47.946;20.540;2024-02-16T08:06:18;4.62;84.24
67586;SHT31;55785;47.946;20.540;2024-02-16T08:08:43;4.79;83.86
67586;SHT31;55785;47.946;20.540;2024-02-16T08:11:08;4.93;83.00
67586;SHT31;55785;47.946;20.540;2024-02-16T08:13:33;5.04;83.11
67586;SHT31;55785;47.946;20.540;2024-02-16T08:15:59;5.17;83.53
67586;SHT31;55785;47.946;20.540;2024-02-16T08:18:24;5.30;83.92
67586;SHT31;55785;47.946;20.540;2024-02-16T08:20:49;5.45;83.87
67586;SHT31;55785;47.946;20.540;2024-02-16T08:23:15;5.53;83.17
67586;SHT31;55785;47.946;20.540;2024-02-16T08:25:40;5.69;83.49
67586;SHT31;55785;47.946;20.540;2024-02-16T08:28:06;5.77;83.22
67586;SHT31;55785;47.946;20.540;2024-02-16T08:30:31;5.90;83.61
67586;SHT31;55785;47.946;20.540;2024-02-16T08:32:56;6.03;82.62
67586;SHT31;55785;47.946;20.540;2024-02-16T08:35:22;6.24;83.51
67586;SHT31;55785;47.946;20.540;2024-02-16T08:37:47;6.41;83.72
67586;SHT31;55785;47.946;20.540;2024-02-16T08:40:13;6.55;83.29
67586;SHT31;55785;47.946;20.540;2024-02-16T08:42:38;6.69;82.83
67586;SHT31;55785;47.946;20.540;2024-02-16T08:45:04;6.78;81.83
67586;SHT31;55785;47.946;20.540;2024-02-16T08:47:29;6.83;79.49
67586;SHT31;55785;47.946;20.540;2024-02-16T08:49:54;6.93;77.93
67586;SHT31;55785;47.946;20.540;2024-02-16T08:52:20;7.01;75.87
67586;SHT31;55785;47.946;20.540;2024-02-16T08:54:45;7.20;79.49
67586;SHT31;55785;47.946;20.540;2024-02-16T08:57:10;7.37;77.48
67586;SHT31;55785;47.946;20.540;2024-02-16T08:59:36;7.61;74.39
67586;SHT31;55785;47.946;20.540;2024-02-16T09:02:01;7.86;76.44
67586;SHT31;55785;47.946;20.540;2024-02-16T09:04:26;8.05;70.98
67586;SHT31;55785;47.946;20.540;2024-02-16T09:06:52;8.13;70.19
67586;SHT31;55785;47.946;20.540;2024-02-16T09:09:17;8.26;72.12
67586;SHT31;55785;47.946;20.540;2024-02-16T09:11:42;8.48;72.75
67586;SHT31;55785;47.946;20.540;2024-02-16T09:14:08;8.63;71.00
67586;SHT31;55785;47.946;20.540;2024-02-16T09:16:33;8.74;70.08
67586;SHT31;55785;47.946;20.540;2024-02-16T09:18:59;8.76;68.64
67586;SHT31;55785;47.946;20.540;2024-02-16T09:21:24;8.85;71.23
67586;SHT31;55785;47.946;20.540;2024-02-16T09:23:49;8.67;68.87
67586;SHT31;55785;47.946;20.540;2024-02-16T09:26:15;8.79;73.73
67586;SHT31;55785;47.946;20.540;2024-02-16T09:28:40;8.86;70.16
67586;SHT31;55785;47.946;20.540;2024-02-16T09:31:06;8.96;70.32
67586;SHT31;55785;47.946;20.540;2024-02-16T09:33:31;8.98;70.46
67586;SHT31;55785;47.946;20.540;2024-02-16T09:35:56;9.11;69.82
67586;SHT31;55785;47.946;20.540;2024-02-16T09:38:22;9.16;70.03
67586;SHT31;55785;47.946;20.540;2024-02-16T09:40:47;9.09;67.48
67586;SHT31;55785;47.946;20.540;2024-02-16T09:43:29;9.09;67.07
67586;SHT31;55785;47.946;20.540;2024-02-16T09:45:58;9.15;69.57
67586;SHT31;55785;47.946;20.540;2024-02-16T09:48:26;9.15;68.28
67586;SHT31;55785;47.946;20.540;2024-02-16T09:50:53;9.30;67.99
67586;SHT31;55785;47.946;20.540;2024-02-16T09:53:19;9.40;67.78
67586;SHT31;55785;47.946;20.540;2024-02-16T09:55:45;9.44;68.36
67586;SHT31;55785;47.946;20.540;2024-02-16T09:58:11;9.51;67.72
67586;SHT31;55785;47.946;20.540;2024-02-16T10:00:36;9.61;67.20
67586;SHT31;55785;47.946;20.540;2024-02-16T10:03:01;9.53;64.93
67586;SHT31;55785;47.946;20.540;2024-02-16T10:05:27;9.61;68.06
67586;SHT31;55785;47.946;20.540;2024-02-16T10:07:52;9.53;65.61
67586;SHT31;55785;47.946;20.540;2024-02-16T10:10:26;9.60;67.17
67586;SHT31;55785;47.946;20.540;2024-02-16T10:13:05;9.74;65.93
67586;SHT31;55785;47.946;20.540;2024-02-16T10:15:34;9.90;65.45
67586;SHT31;55785;47.946;20.540;2024-02-16T10:18:06;9.87;65.10
67586;SHT31;55785;47.946;20.540;2024-02-16T10:20:35;9.92;66.11
67586;SHT31;55785;47.946;20.540;2024-02-16T10:23:10;10.01;64.54
67586;SHT31;55785;47.946;20.540;2024-02-16T10:25:38;9.97;64.34
67586;SHT31;55785;47.946;20.540;2024-02-16T10:28:05;10.05;66.32
67586;SHT31;55785;47.946;20.540;2024-02-16T10:30:35;10.16;63.53
67586;SHT31;55785;47.946;20.540;2024-02-16T10:33:00;10.09;64.64
67586;SHT31;55785;47.946;20.540;2024-02-16T10:35:28;10.08;63.45
67586;SHT31;55785;47.946;20.540;2024-02-16T10:37:55;10.25;64.05
67586;SHT31;55785;47.946;20.540;2024-02-16T10:40:20;10.32;62.95
67586;SHT31;55785;47.946;20.540;2024-02-16T10:42:49;10.25;63.31
67586;SHT31;55785;47.946;20.540;2024-02-16T10:45:15;10.38;64.98
67586;SHT31;55785;47.946;20.540;2024-02-16T10:47:41;10.36;64.78
67586;SHT31;55785;47.946;20.540;2024-02-16T10:50:06;10.31;65.91
67586;SHT31;55785;47.946;20.540;2024-02-16T10:52:32;10.43;64.52
67586;SHT31;55785;47.946;20.540;2024-02-16T10:54:59;10.53;62.96
67586;SHT31;55785;47.946;20.540;2024-02-16T10:57:25;10.76;65.93
67586;SHT31;55785;47.946;20.540;2024-02-16T10:59:52;10.59;63.90
67586;SHT31;55785;47.946;20.540;2024-02-16T11:02:18;10.60;64.93
67586;SHT31;55785;47.946;20.540;2024-02-16T11:04:46;10.77;64.28
67586;SHT31;55785;47.946;20.540;2024-02-16T11:07:14;10.84;61.56
67586;SHT31;55785;47.946;20.540;2024-02-16T11:09:40;10.88;62.56
67586;SHT31;55785;47.946;20.540;2024-02-16T11:12:06;10.97;63.31
67586;SHT31;55785;47.946;20.540;2024-02-16T11:14:40;11.22;65.26
67586;SHT31;55785;47.946;20.540;2024-02-16T11:17:15;11.38;61.85
67586;SHT31;55785;47.946;20.540;2024-02-16T11:19:46;11.52;61.65
67586;SHT31;55785;47.946;20.540;2024-02-16T11:22:16;11.72;60.38
67586;SHT31;55785;47.946;20.540;2024-02-16T11:24:46;11.89;59.89
67586;SHT31;55785;47.946;20.540;2024-02-16T11:27:12;12.18;59.30
67586;SHT31;55785;47.946;20.540;2024-02-16T11:29:38;12.55;57.52
67586;SHT31;55785;47.946;20.540;2024-02-16T11:32:05;13.27;57.53
67586;SHT31;55785;47.946;20.540;2024-02-16T11:34:31;14.02;54.04
67586;SHT31;55785;47.946;20.540;2024-02-16T11:36:58;14.18;53.22
67586;SHT31;55785;47.946;20.540;2024-02-16T11:39:25;14.57;52.54
67586;SHT31;55785;47.946;20.540;2024-02-16T11:42:04;14.67;51.41
67586;SHT31;55785;47.946;20.540;2024-02-16T11:44:31;14.66;54.80
67586;SHT31;55785;47.946;20.540;2024-02-16T11:46:56;14.23;55.87
67586;SHT31;55785;47.946;20.540;2024-02-16T11:49:21;14.34;53.54
67586;SHT31;55785;47.946;20.540;2024-02-16T11:51:47;14.46;52.36
67586;SHT31;55785;47.946;20.540;2024-02-16T11:54:13;13.54;53.63
67586;SHT31;55785;47.946;20.540;2024-02-16T11:56:38;13.31;56.69
67586;SHT31;55785;47.946;20.540;2024-02-16T11:59:04;13.50;54.68
67586;SHT31;55785;47.946;20.540;2024-02-16T12:01:29;13.72;54.50
67586;SHT31;55785;47.946;20.540;2024-02-16T12:03:55;13.37;55.23
67586;SHT31;55785;47.946;20.540;2024-02-16T12:06:20;13.60;53.39
67586;SHT31;55785;47.946;20.540;2024-02-16T12:08:46;13.83;53.31
67586;SHT31;55785;47.946;20.540;2024-02-16T12:11:11;13.82;54.20
67586;SHT31;55785;47.946;20.540;2024-02-16T12:13:37;13.99;54.94
67586;SHT31;55785;47.946;20.540;2024-02-16T12:16:02;13.92;53.93
67586;SHT31;55785;47.946;20.540;2024-02-16T12:18:27;13.67;54.19
67586;SHT31;55785;47.946;20.540;2024-02-16T12:21:19;13.17;56.17
67586;SHT31;55785;47.946;20.540;2024-02-16T12:23:44;13.06;58.15
67586;SHT31;55785;47.946;20.540;2024-02-16T12:26:10;13.00;56.00
67586;SHT31;55785;47.946;20.540;2024-02-16T12:28:35;12.91;56.20
67586;SHT31;55785;47.946;20.540;2024-02-16T12:31:00;12.73;58.92
67586;SHT31;55785;47.946;20.540;2024-02-16T12:33:26;12.27;59.42
67586;SHT31;55785;47.946;20.540;2024-02-16T12:35:51;12.45;59.12
67586;SHT31;55785;47.946;20.540;2024-02-16T12:38:17;12.46;59.11
67586;SHT31;55785;47.946;20.540;2024-02-16T12:40:43;12.55;58.31
67586;SHT31;55785;47.946;20.540;2024-02-16T12:43:08;12.34;58.30
67586;SHT31;55785;47.946;20.540;2024-02-16T12:45:34;12.17;59.58
67586;SHT31;55785;47.946;20.540;2024-02-16T12:47:59;12.20;59.03
67586;SHT31;55785;47.946;20.540;2024-02-16T12:50:24;12.04;60.00
67586;SHT31;55785;47.946;20.540;2024-02-16T12:52:50;12.14;59.84
67586;SHT31;55785;47.946;20.540;2024-02-16T12:55:15;11.94;59.98
67586;SHT31;55785;47.946;20.540;2024-02-16T12:57:40;11.93;60.90
67586;SHT31;55785;47.946;20.540;2024-02-16T13:00:06;12.10;59.53
67586;SHT31;55785;47.946;20.540;2024-02-16T13:02:32;12.18;59.21
67586;SHT31;55785;47.946;20.540;2024-02-16T13:04:57;12.21;59.05
67586;SHT31;55785;47.946;20.540;2024-02-16T13:07:24;12.23;60.10
67586;SHT31;55785;47.946;20.540;2024-02-16T13:09:49;12.33;59.63
67586;SHT31;55785;47.946;20.540;2024-02-16T13:12:14;12.38;58.60
67586;SHT31;55785;47.946;20.540;2024-02-16T13:14:40;12.13;59.36
67586;SHT31;55785;47.946;20.540;2024-02-16T13:17:05;12.14;60.78
67586;SHT31;55785;47.946;20.540;2024-02-16T13:19:30;12.18;58.88
67586;SHT31;55785;47.946;20.540;2024-02-16T13:21:56;12.30;59.52
67586;SHT31;55785;47.946;20.540;2024-02-16T13:24:21;12.31;59.39
67586;SHT31;55785;47.946;20.540;2024-02-16T13:26:46;12.44;59.41
67586;SHT31;55785;47.946;20.540;2024-02-16T13:29:12;12.38;58.51
67586;SHT31;55785;47.946;20.540;2024-02-16T13:31:37;12.45;58.36
67586;SHT31;55785;47.946;20.540;2024-02-16T13:34:03;12.01;60.73
67586;SHT31;55785;47.946;20.540;2024-02-16T13:36:28;12.20;60.45
67586;SHT31;55785;47.946;20.540;2024-02-16T13:38:53;12.31;60.05
67586;SHT31;55785;47.946;20.540;2024-02-16T13:41:19;12.44;59.22
67586;SHT31;55785;47.946;20.540;2024-02-16T13:43:44;12.56;58.11
67586;SHT31;55785;47.946;20.540;2024-02-16T13:46:10;12.64;58.99
67586;SHT31;55785;47.946;20.540;2024-02-16T13:48:35;12.49;58.98
67586;SHT31;55785;47.946;20.540;2024-02-16T13:51:00;12.40;58.72
67586;SHT31;55785;47.946;20.540;2024-02-16T13:53:26;12.41;59.97
67586;SHT31;55785;47.946;20.540;2024-02-16T13:55:51;12.31;59.17
67586;SHT31;55785;47.946;20.540;2024-02-16T13:58:16;12.35;59.92
67586;SHT31;55785;47.946;20.540;2024-02-16T14:00:42;12.34;59.54
67586;SHT31;55785;47.946;20.540;2024-02-16T14:03:09;12.21;59.28
67586;SHT31;55785;47.946;20.540;2024-02-16T14:05:38;12.10;59.34
67586;SHT31;55785;47.946;20.540;2024-02-16T14:08:04;12.03;60.26
67586;SHT31;55785;47.946;20.540;2024-02-16T14:10:30;11.87;61.28
67586;SHT31;55785;47.946;20.540;2024-02-16T14:12:56;11.75;61.62
67586;SHT31;55785;47.946;20.540;2024-02-16T14:15:21;11.61;63.46
67586;SHT31;55785;47.946;20.540;2024-02-16T14:17:46;11.45;61.27
67586;SHT31;55785;47.946;20.540;2024-02-16T14:20:12;11.35;63.05
67586;SHT31;55785;47.946;20.540;2024-02-16T14:22:37;11.36;61.43
67586;SHT31;55785;47.946;20.540;2024-02-16T14:25:02;11.31;62.73
67586;SHT31;55785;47.946;20.540;2024-02-16T14:27:28;11.14;63.82
67586;SHT31;55785;47.946;20.540;2024-02-16T14:29:53;11.17;63.07
67586;SHT31;55785;47.946;20.540;2024-02-16T14:32:20;11.12;62.04
67586;SHT31;55785;47.946;20.540;2024-02-16T14:34:45;11.12;62.72
67586;SHT31;55785;47.946;20.540;2024-02-16T14:37:11;11.06;62.91
67586;SHT31;55785;47.946;20.540;2024-02-16T14:39:36;11.10;62.68
67586;SHT31;55785;47.946;20.540;2024-02-16T14:42:01;11.06;63.02
67586;SHT31;55785;47.946;20.540;2024-02-16T14:44:27;11.11;64.29
67586;SHT31;55785;47.946;20.540;2024-02-16T14:46:53;11.06;62.96
67586;SHT31;55785;47.946;20.540;2024-02-16T14:49:18;11.03;64.17
67586;SHT31;55785;47.946;20.540;2024-02-16T14:51:43;10.93;64.91
67586;SHT31;55785;47.946;20.540;2024-02-16T14:54:09;10.85;64.39
67586;SHT31;55785;47.946;20.540;2024-02-16T14:56:34;10.81;64.94
67586;SHT31;55785;47.946;20.540;2024-02-16T14:58:59;10.76;64.10
67586;SHT31;55785;47.946;20.540;2024-02-16T15:01:25;10.70;64.22
67586;SHT31;55785;47.946;20.540;2024-02-16T15:03:50;10.56;65.29
67586;SHT31;55785;47.946;20.540;2024-02-16T15:06:15;10.46;65.54
67586;SHT31;55785;47.946;20.540;2024-02-16T15:08:41;10.36;66.72
67586;SHT31;55785;47.946;20.540;2024-02-16T15:11:06;10.21;66.84
67586;SHT31;55785;47.946;20.540;2024-02-16T15:13:31;10.09;67.48
67586;SHT31;55785;47.946;20.540;2024-02-16T15:15:57;10.11;67.64